Huvudsida
METAR-TAF:

METAR-TAF

Flygplatser :

Irkutsk, Ryssland

latitud: 52-16N, longitud: 104-19E, höjd: 513 m

Aktuellt väderrapport

Denna rapport gjordes för 32 minuter sedan, klockan 00:30 UTC
Vind 4 kt från nord/nordost, varierande mellan nordväst och nordost
Temperatur -28°C
Fuktighet 68%
Tryck 1030 hPa
Sikt: 3700 m
Mulet på en höjd av 3500 ft, Cumulonimbus.
lätta snöbyar

METAR: UIII 200030Z 02002MPS 320V040 3700 -SHSN OVC035CB M28/M32 Q1030 RESHSN R30/490250 NOSIG RMK QFE727/0970

Tid: 09:02 (01:02 UTC)

Väderprognos

Denna rapport gjordes för 2 timmar och 2 minuter sedan, klockan 23:00 UTC
Prognos gäller från 20 kl. 00 UTC till 20 kl. 24 UTC
Vind 14 kt från väst/nordväst
Sikt 10 km eller mer
Spridda moln på en höjd av 2000 ft, Cumulonimbus.
lågt snödrev
Temporärt
från 20 kl. 00 UTC till 20 kl. 12 UTC
Vind 19 kt från nordväst i byarna ända upp till 29 kt
Sikt: 2000 m
snöbyar, högt snödrev

TAF: UIII 192300Z 2000/2024 30007MPS 9999 DRSN SCT020CB TEMPO 2000/2012 32010G15MPS 2000 SHSN BLSN

Aktuella väderrapporter och prognoser från 4000 flygplatser (METAR- och TAF-rapporter).

De tillgängliga stationerna syns som gula och röda prickar på kartan.

För musen över prickarna för att se namnen på stationerna.

Klicka sedan för att få väderrapporter och prognoser.

För att ändra kartan: Klicka på de gröna knapparna med ett svart kors på för att zooma in; den gröna knappen med ett streck på för att zooma ut; eller på de gröna pilarna för angränsande kartor.


METAR-TAF: